Grand Island, California
Current Conditions -  °F | °C
As of 12:58 PM on Saturday 25 Oct 2014 (Local Time) from KSUU Reporting Station
Broken Clouds Broken Clouds  
Wind Chill: 71°   Ceiling: 3400
Heat Index: 71°   Visibility: 10mi
Dew Point: 58°   Wind: 17mph
Humidity: 63%   Direction: 230°SW
Pressure: 30.01"   Gusts: 24mph
Location:  38.2298°N, 121.579°W
Report Text: KSUU 251958Z AUTO 23015G21KT 10SM BKN034 BKN055 22/14 A3001 RMK AO2 PK WND 22026/24 SLP169 T02160142 $
Loading
Personal Weather Stations






























Interactive Weather Map
Tropical Storm Tracking
New forecast layout! Learn more

10-Day Weather Forecast

Advertisements
Track Severe Weather on mobile